EDT,Max TemperatureF,Mean TemperatureF,Min TemperatureF,Max Dew PointF,MeanDew PointF,Min DewpointF,Max Humidity, Mean Humidity, Min Humidity, Max Sea Level PressureIn, Mean Sea Level PressureIn, Min Sea Level PressureIn, Max VisibilityMiles, Mean VisibilityMiles, Min VisibilityMiles, Max Wind SpeedMPH, Mean Wind SpeedMPH, Max Gust SpeedMPH,PrecipitationIn, CloudCover, Events, WindDirDegrees
2013-9-1,78,73,68,72,68,64,88,85,74,29.91,29.89,29.85,10,7,2,12,4,,0.60,6,Thunderstorm,196
2013-9-2,77,73,69,72,68,66,94,87,78,29.90,29.82,29.75,10,6,0,7,3,,0.42,7,Thunderstorm,177
2013-9-3,78,69,60,68,64,55,94,82,61,29.86,29.79,29.73,10,8,3,9,4,16,0.00,5,Thunderstorm,235
2013-9-4,77,67,57,57,54,52,88,69,47,29.96,29.91,29.85,10,10,10,13,6,18,0.00,0,,262
2013-9-5,69,58,46,63,52,43,88,75,52,30.15,30.00,29.90,10,10,10,14,4,22,0.05,3,,320
2013-9-6,64,53,42,45,41,37,87,64,39,30.26,30.20,30.13,10,10,10,10,5,,0.00,0,,330
2013-9-7,73,58,44,54,48,41,87,65,43,30.13,30.02,29.91,10,10,10,12,4,18,0.00,1,,228
2013-9-8,75,63,51,61,50,37,82,62,38,30.11,29.89,29.79,10,10,10,23,7,33,0.00,3,,288
2013-9-9,66,52,39,46,42,36,87,63,40,30.26,30.20,30.12,10,10,6,7,3,,0.00,0,,220
2013-9-10,73,63,53,66,59,46,83,79,72,30.19,30.14,30.08,10,9,4,9,5,20,0.00,7,,205
2013-9-11,89,79,69,73,69,64,88,74,55,30.12,30.07,30.01,10,7,2,9,5,18,0.00,0,,215
2013-9-12,82,76,69,72,67,64,88,77,58,30.02,29.88,29.72,10,7,2,10,4,21,0.46,3,Thunderstorm,198
2013-9-13,77,68,59,64,61,52,94,79,61,29.79,29.68,29.61,10,9,2,14,4,22,0.06,6,,285
2013-9-14,66,58,51,52,49,45,82,70,56,30.08,29.93,29.79,10,10,10,13,8,17,0.00,4,,303
2013-9-15,68,57,46,48,46,43,87,71,49,30.19,30.13,30.09,10,10,10,9,3,,0.00,0,,258
2013-9-16,55,54,53,48,48,46,82,78,72,30.08,30.07,30.06,10,10,10,5,2,,0.00,0,,245
2013-9-17,59,48,37,37,34,30,87,62,41,30.44,30.36,30.26,10,10,10,14,11,24,0.00,0,,11
2013-9-18,69,54,39,45,42,34,87,58,37,30.34,30.30,30.24,10,10,10,8,3,,0.00,0,,271
2013-9-19,75,64,53,54,49,46,88,59,38,30.16,30.11,30.08,10,10,10,7,4,,0.00,0,,252
2013-9-20,77,62,46,55,50,43,93,70,38,30.11,30.07,30.03,10,10,2,7,3,,0.00,0,,204
2013-9-21,73,62,51,63,57,48,94,81,57,30.06,29.94,29.77,10,7,0,10,4,20,0.00,6,,182
2013-9-22,69,58,48,64,53,41,94,74,49,29.85,29.73,29.65,10,10,3,15,7,25,0.81,5,,270
2013-9-23,55,48,42,41,38,36,81,70,51,29.95,29.91,29.85,10,10,10,16,9,23,0.00,0,,308
2013-9-24,64,54,44,45,42,39,82,57,42,29.94,29.89,29.84,10,10,10,13,8,18,0.00,1,,313
2013-9-25,66,54,41,54,44,37,87,66,49,30.00,29.93,29.90,10,10,10,15,5,20,0.00,3,,339
2013-9-26,62,54,46,46,45,43,87,69,48,30.14,30.06,30.00,10,10,9,10,4,,0.00,6,,12
2013-9-27,62,53,44,50,47,41,88,73,59,30.28,30.22,30.14,10,10,9,13,4,17,0.00,6,,11
2013-9-28,71,58,46,54,47,43,93,72,46,30.34,30.30,30.27,10,10,2,12,3,16,0.00,0,,40
2013-9-29,66,55,44,52,45,39,93,73,43,30.28,30.20,30.14,10,8,0,9,3,,0.00,2,,60
2013-9-30,66,55,44,48,45,39,93,74,43,30.14,30.06,29.98,10,7,0,12,4,,0.00,3,,14